sensor_id;sensor_type;location;lat;lon;timestamp;temperature;humidity
65598;SHT31;52267;51.984;20.956;2023-07-31T00:00:14;18.12;75.93
65598;SHT31;52267;51.984;20.956;2023-07-31T00:03:02;18.05;76.15
65598;SHT31;52267;51.984;20.956;2023-07-31T00:05:29;17.99;76.21
65598;SHT31;52267;51.984;20.956;2023-07-31T00:07:56;17.97;76.10
65598;SHT31;52267;51.984;20.956;2023-07-31T00:10:23;17.94;76.14
65598;SHT31;52267;51.984;20.956;2023-07-31T00:12:50;17.91;76.21
65598;SHT31;52267;51.984;20.956;2023-07-31T00:15:17;17.88;76.32
65598;SHT31;52267;51.984;20.956;2023-07-31T00:17:44;17.87;76.35
65598;SHT31;52267;51.984;20.956;2023-07-31T00:20:11;17.84;76.43
65598;SHT31;52267;51.984;20.956;2023-07-31T00:22:38;17.81;76.42
65598;SHT31;52267;51.984;20.956;2023-07-31T00:25:05;17.78;76.52
65598;SHT31;52267;51.984;20.956;2023-07-31T00:27:32;17.75;76.50
65598;SHT31;52267;51.984;20.956;2023-07-31T00:29:59;17.72;76.44
65598;SHT31;52267;51.984;20.956;2023-07-31T00:32:26;17.72;76.57
65598;SHT31;52267;51.984;20.956;2023-07-31T00:34:53;17.68;76.70
65598;SHT31;52267;51.984;20.956;2023-07-31T00:37:20;17.62;76.91
65598;SHT31;52267;51.984;20.956;2023-07-31T00:39:48;17.54;77.26
65598;SHT31;52267;51.984;20.956;2023-07-31T00:42:15;17.47;77.30
65598;SHT31;52267;51.984;20.956;2023-07-31T00:44:42;17.45;77.17
65598;SHT31;52267;51.984;20.956;2023-07-31T00:47:09;17.44;77.14
65598;SHT31;52267;51.984;20.956;2023-07-31T00:49:36;17.38;77.37
65598;SHT31;52267;51.984;20.956;2023-07-31T00:52:03;17.35;77.35
65598;SHT31;52267;51.984;20.956;2023-07-31T00:54:30;17.25;77.62
65598;SHT31;52267;51.984;20.956;2023-07-31T00:56:58;17.21;77.75
65598;SHT31;52267;51.984;20.956;2023-07-31T00:59:26;17.22;77.65
65598;SHT31;52267;51.984;20.956;2023-07-31T01:01:53;17.24;77.64
65598;SHT31;52267;51.984;20.956;2023-07-31T01:04:20;17.24;77.74
65598;SHT31;52267;51.984;20.956;2023-07-31T01:06:48;17.25;77.77
65598;SHT31;52267;51.984;20.956;2023-07-31T01:12:03;17.20;77.96
65598;SHT31;52267;51.984;20.956;2023-07-31T01:14:33;17.19;78.04
65598;SHT31;52267;51.984;20.956;2023-07-31T01:17:00;17.15;78.25
65598;SHT31;52267;51.984;20.956;2023-07-31T01:19:27;17.13;78.22
65598;SHT31;52267;51.984;20.956;2023-07-31T01:25:00;17.10;78.36
65598;SHT31;52267;51.984;20.956;2023-07-31T01:28:05;17.07;78.48
65598;SHT31;52267;51.984;20.956;2023-07-31T01:30:34;17.04;78.53
65598;SHT31;52267;51.984;20.956;2023-07-31T01:33:10;17.01;78.69
65598;SHT31;52267;51.984;20.956;2023-07-31T01:35:37;17.00;78.64
65598;SHT31;52267;51.984;20.956;2023-07-31T01:38:04;17.00;78.74
65598;SHT31;52267;51.984;20.956;2023-07-31T01:40:32;16.98;78.75
65598;SHT31;52267;51.984;20.956;2023-07-31T01:42:59;16.91;78.89
65598;SHT31;52267;51.984;20.956;2023-07-31T01:45:26;16.88;79.06
65598;SHT31;52267;51.984;20.956;2023-07-31T01:47:53;16.86;79.08
65598;SHT31;52267;51.984;20.956;2023-07-31T01:50:20;16.84;79.09
65598;SHT31;52267;51.984;20.956;2023-07-31T01:52:47;16.84;79.10
65598;SHT31;52267;51.984;20.956;2023-07-31T01:55:14;16.82;79.20
65598;SHT31;52267;51.984;20.956;2023-07-31T01:57:41;16.81;79.18
65598;SHT31;52267;51.984;20.956;2023-07-31T02:00:08;16.81;79.13
65598;SHT31;52267;51.984;20.956;2023-07-31T02:02:35;16.79;79.17
65598;SHT31;52267;51.984;20.956;2023-07-31T02:05:03;16.79;79.16
65598;SHT31;52267;51.984;20.956;2023-07-31T02:07:30;16.78;79.23
65598;SHT31;52267;51.984;20.956;2023-07-31T02:09:57;16.75;79.30
65598;SHT31;52267;51.984;20.956;2023-07-31T02:12:25;16.69;79.39
65598;SHT31;52267;51.984;20.956;2023-07-31T02:14:52;16.64;79.44
65598;SHT31;52267;51.984;20.956;2023-07-31T02:17:19;16.61;79.47
65598;SHT31;52267;51.984;20.956;2023-07-31T02:19:46;16.58;79.56
65598;SHT31;52267;51.984;20.956;2023-07-31T02:22:13;16.57;79.55
65598;SHT31;52267;51.984;20.956;2023-07-31T02:24:40;16.56;79.45
65598;SHT31;52267;51.984;20.956;2023-07-31T02:27:07;16.56;79.47
65598;SHT31;52267;51.984;20.956;2023-07-31T02:29:34;16.54;79.36
65598;SHT31;52267;51.984;20.956;2023-07-31T02:32:01;16.52;79.30
65598;SHT31;52267;51.984;20.956;2023-07-31T02:34:28;16.54;79.18
65598;SHT31;52267;51.984;20.956;2023-07-31T02:36:55;16.56;79.28
65598;SHT31;52267;51.984;20.956;2023-07-31T02:39:22;16.57;79.07
65598;SHT31;52267;51.984;20.956;2023-07-31T02:41:49;16.61;79.38
65598;SHT31;52267;51.984;20.956;2023-07-31T02:44:16;16.64;79.68
65598;SHT31;52267;51.984;20.956;2023-07-31T02:46:46;16.69;79.59
65598;SHT31;52267;51.984;20.956;2023-07-31T02:49:13;16.73;79.70
65598;SHT31;52267;51.984;20.956;2023-07-31T02:51:40;16.77;79.58
65598;SHT31;52267;51.984;20.956;2023-07-31T02:54:07;16.84;79.53
65598;SHT31;52267;51.984;20.956;2023-07-31T02:56:34;16.89;79.34
65598;SHT31;52267;51.984;20.956;2023-07-31T02:59:02;16.94;79.40
65598;SHT31;52267;51.984;20.956;2023-07-31T03:01:29;17.00;79.49
65598;SHT31;52267;51.984;20.956;2023-07-31T03:03:56;17.05;79.39
65598;SHT31;52267;51.984;20.956;2023-07-31T03:06:23;17.11;79.16
65598;SHT31;52267;51.984;20.956;2023-07-31T03:08:50;17.17;79.40
65598;SHT31;52267;51.984;20.956;2023-07-31T03:11:17;17.23;79.17
65598;SHT31;52267;51.984;20.956;2023-07-31T03:13:47;17.29;79.21
65598;SHT31;52267;51.984;20.956;2023-07-31T03:16:14;17.34;79.18
65598;SHT31;52267;51.984;20.956;2023-07-31T03:18:41;17.39;78.97
65598;SHT31;52267;51.984;20.956;2023-07-31T03:21:08;17.44;78.88
65598;SHT31;52267;51.984;20.956;2023-07-31T03:23:35;17.50;78.71
65598;SHT31;52267;51.984;20.956;2023-07-31T03:26:03;17.55;78.70
65598;SHT31;52267;51.984;20.956;2023-07-31T03:28:32;17.61;78.67
65598;SHT31;52267;51.984;20.956;2023-07-31T03:30:59;17.66;78.58
65598;SHT31;52267;51.984;20.956;2023-07-31T03:33:26;17.70;78.53
65598;SHT31;52267;51.984;20.956;2023-07-31T03:35:53;17.75;78.27
65598;SHT31;52267;51.984;20.956;2023-07-31T03:38:20;17.79;78.17
65598;SHT31;52267;51.984;20.956;2023-07-31T03:40:47;17.82;78.05
65598;SHT31;52267;51.984;20.956;2023-07-31T03:43:15;17.85;77.98
65598;SHT31;52267;51.984;20.956;2023-07-31T03:45:42;17.88;77.85
65598;SHT31;52267;51.984;20.956;2023-07-31T03:48:09;17.92;77.78
65598;SHT31;52267;51.984;20.956;2023-07-31T03:50:36;17.96;77.79
65598;SHT31;52267;51.984;20.956;2023-07-31T03:53:03;17.98;77.61
65598;SHT31;52267;51.984;20.956;2023-07-31T03:55:30;18.00;77.51
65598;SHT31;52267;51.984;20.956;2023-07-31T03:57:57;18.02;77.42
65598;SHT31;52267;51.984;20.956;2023-07-31T04:00:26;18.05;77.37
65598;SHT31;52267;51.984;20.956;2023-07-31T04:02:54;18.06;77.23
65598;SHT31;52267;51.984;20.956;2023-07-31T04:05:21;18.05;77.17
65598;SHT31;52267;51.984;20.956;2023-07-31T04:07:48;18.07;77.13
65598;SHT31;52267;51.984;20.956;2023-07-31T04:10:15;18.09;76.99
65598;SHT31;52267;51.984;20.956;2023-07-31T04:12:42;18.11;76.91
65598;SHT31;52267;51.984;20.956;2023-07-31T04:15:09;18.13;76.86
65598;SHT31;52267;51.984;20.956;2023-07-31T04:17:36;18.13;76.80
65598;SHT31;52267;51.984;20.956;2023-07-31T04:20:04;18.11;76.81
65598;SHT31;52267;51.984;20.956;2023-07-31T04:22:32;18.15;76.69
65598;SHT31;52267;51.984;20.956;2023-07-31T04:24:59;18.16;76.55
65598;SHT31;52267;51.984;20.956;2023-07-31T04:27:26;18.18;76.47
65598;SHT31;52267;51.984;20.956;2023-07-31T04:29:53;18.21;76.43
65598;SHT31;52267;51.984;20.956;2023-07-31T04:32:20;18.22;76.35
65598;SHT31;52267;51.984;20.956;2023-07-31T04:34:47;18.25;76.29
65598;SHT31;52267;51.984;20.956;2023-07-31T04:37:14;18.26;76.29
65598;SHT31;52267;51.984;20.956;2023-07-31T04:39:41;18.31;76.27
65598;SHT31;52267;51.984;20.956;2023-07-31T04:42:08;18.33;76.14
65598;SHT31;52267;51.984;20.956;2023-07-31T04:44:35;18.35;76.16
65598;SHT31;52267;51.984;20.956;2023-07-31T04:47:02;18.37;76.10
65598;SHT31;52267;51.984;20.956;2023-07-31T04:49:30;18.40;76.04
65598;SHT31;52267;51.984;20.956;2023-07-31T04:51:58;18.40;76.00
65598;SHT31;52267;51.984;20.956;2023-07-31T04:54:25;18.43;75.92
65598;SHT31;52267;51.984;20.956;2023-07-31T04:56:52;18.45;75.91
65598;SHT31;52267;51.984;20.956;2023-07-31T04:59:20;18.50;75.79
65598;SHT31;52267;51.984;20.956;2023-07-31T05:01:47;18.52;75.75
65598;SHT31;52267;51.984;20.956;2023-07-31T05:04:14;18.54;75.54
65598;SHT31;52267;51.984;20.956;2023-07-31T05:06:41;18.58;75.50
65598;SHT31;52267;51.984;20.956;2023-07-31T05:09:08;18.61;75.41
65598;SHT31;52267;51.984;20.956;2023-07-31T05:11:35;18.66;75.31
65598;SHT31;52267;51.984;20.956;2023-07-31T05:14:03;18.70;75.17
65598;SHT31;52267;51.984;20.956;2023-07-31T05:16:30;18.77;75.01
65598;SHT31;52267;51.984;20.956;2023-07-31T05:18:57;18.83;74.84
65598;SHT31;52267;51.984;20.956;2023-07-31T05:21:24;18.91;74.78
65598;SHT31;52267;51.984;20.956;2023-07-31T05:23:51;18.96;74.55
65598;SHT31;52267;51.984;20.956;2023-07-31T05:26:19;18.99;74.44
65598;SHT31;52267;51.984;20.956;2023-07-31T05:28:46;18.99;74.28
65598;SHT31;52267;51.984;20.956;2023-07-31T05:31:13;19.03;74.31
65598;SHT31;52267;51.984;20.956;2023-07-31T05:33:40;19.06;74.19
65598;SHT31;52267;51.984;20.956;2023-07-31T05:36:07;19.08;74.12
65598;SHT31;52267;51.984;20.956;2023-07-31T05:38:34;19.09;74.06
65598;SHT31;52267;51.984;20.956;2023-07-31T05:41:02;19.08;73.92
65598;SHT31;52267;51.984;20.956;2023-07-31T05:43:29;19.04;73.80
65598;SHT31;52267;51.984;20.956;2023-07-31T05:45:56;19.05;73.82
65598;SHT31;52267;51.984;20.956;2023-07-31T05:48:23;19.04;73.76
65598;SHT31;52267;51.984;20.956;2023-07-31T05:50:50;19.01;73.81
65598;SHT31;52267;51.984;20.956;2023-07-31T05:53:17;19.03;73.82
65598;SHT31;52267;51.984;20.956;2023-07-31T05:55:44;19.01;73.66
65598;SHT31;52267;51.984;20.956;2023-07-31T05:58:11;19.02;73.64
65598;SHT31;52267;51.984;20.956;2023-07-31T06:00:38;19.03;73.61
65598;SHT31;52267;51.984;20.956;2023-07-31T06:03:05;19.06;73.58
65598;SHT31;52267;51.984;20.956;2023-07-31T06:05:32;19.05;73.40
65598;SHT31;52267;51.984;20.956;2023-07-31T06:07:59;19.07;73.44
65598;SHT31;52267;51.984;20.956;2023-07-31T06:10:26;19.06;73.39
65598;SHT31;52267;51.984;20.956;2023-07-31T06:12:54;19.06;73.45
65598;SHT31;52267;51.984;20.956;2023-07-31T06:15:21;19.05;73.95
65598;SHT31;52267;51.984;20.956;2023-07-31T06:17:48;19.03;74.11
65598;SHT31;52267;51.984;20.956;2023-07-31T06:20:16;19.01;74.14
65598;SHT31;52267;51.984;20.956;2023-07-31T06:22:43;18.97;74.69
65598;SHT31;52267;51.984;20.956;2023-07-31T06:25:10;18.88;74.66
65598;SHT31;52267;51.984;20.956;2023-07-31T06:27:38;18.85;74.72
65598;SHT31;52267;51.984;20.956;2023-07-31T06:30:05;18.84;74.79
65598;SHT31;52267;51.984;20.956;2023-07-31T06:32:33;18.83;74.69
65598;SHT31;52267;51.984;20.956;2023-07-31T06:35:00;18.82;74.66
65598;SHT31;52267;51.984;20.956;2023-07-31T06:37:27;18.86;74.61
65598;SHT31;52267;51.984;20.956;2023-07-31T06:39:54;18.90;74.49
65598;SHT31;52267;51.984;20.956;2023-07-31T06:42:21;18.95;74.33
65598;SHT31;52267;51.984;20.956;2023-07-31T06:44:48;19.03;74.26
65598;SHT31;52267;51.984;20.956;2023-07-31T06:47:16;19.13;74.18
65598;SHT31;52267;51.984;20.956;2023-07-31T06:49:43;19.17;73.90
65598;SHT31;52267;51.984;20.956;2023-07-31T06:52:10;19.22;73.77
65598;SHT31;52267;51.984;20.956;2023-07-31T06:54:37;19.30;73.82
65598;SHT31;52267;51.984;20.956;2023-07-31T06:57:04;19.38;73.57
65598;SHT31;52267;51.984;20.956;2023-07-31T06:59:31;19.48;73.40
65598;SHT31;52267;51.984;20.956;2023-07-31T07:01:59;19.59;73.15
65598;SHT31;52267;51.984;20.956;2023-07-31T07:04:26;19.75;72.73
65598;SHT31;52267;51.984;20.956;2023-07-31T07:06:53;19.92;72.42
65598;SHT31;52267;51.984;20.956;2023-07-31T07:09:20;20.06;72.21
65598;SHT31;52267;51.984;20.956;2023-07-31T07:11:47;20.15;71.72
65598;SHT31;52267;51.984;20.956;2023-07-31T07:14:14;20.18;71.33
65598;SHT31;52267;51.984;20.956;2023-07-31T07:16:41;20.34;71.42
65598;SHT31;52267;51.984;20.956;2023-07-31T07:19:09;20.43;70.95
65598;SHT31;52267;51.984;20.956;2023-07-31T07:21:36;20.43;70.62
65598;SHT31;52267;51.984;20.956;2023-07-31T07:24:03;20.51;70.25
65598;SHT31;52267;51.984;20.956;2023-07-31T07:26:30;20.59;69.87
65598;SHT31;52267;51.984;20.956;2023-07-31T07:28:57;20.71;69.93
65598;SHT31;52267;51.984;20.956;2023-07-31T07:31:25;20.95;69.69
65598;SHT31;52267;51.984;20.956;2023-07-31T07:33:52;21.18;69.42
65598;SHT31;52267;51.984;20.956;2023-07-31T07:36:19;21.46;68.37
65598;SHT31;52267;51.984;20.956;2023-07-31T07:38:46;21.52;67.64
65598;SHT31;52267;51.984;20.956;2023-07-31T07:41:13;21.56;67.26
65598;SHT31;52267;51.984;20.956;2023-07-31T07:43:40;21.71;67.02
65598;SHT31;52267;51.984;20.956;2023-07-31T07:46:07;21.67;66.49
65598;SHT31;52267;51.984;20.956;2023-07-31T07:48:34;21.78;66.96
65598;SHT31;52267;51.984;20.956;2023-07-31T07:51:01;21.88;66.48
65598;SHT31;52267;51.984;20.956;2023-07-31T07:53:29;22.02;66.05
65598;SHT31;52267;51.984;20.956;2023-07-31T07:55:56;22.18;65.41
65598;SHT31;52267;51.984;20.956;2023-07-31T07:58:24;22.31;65.16
65598;SHT31;52267;51.984;20.956;2023-07-31T08:00:51;22.43;64.91
65598;SHT31;52267;51.984;20.956;2023-07-31T08:03:18;22.47;64.68
65598;SHT31;52267;51.984;20.956;2023-07-31T08:05:45;22.43;64.20
65598;SHT31;52267;51.984;20.956;2023-07-31T08:08:16;22.24;63.82
65598;SHT31;52267;51.984;20.956;2023-07-31T08:10:43;22.29;63.87
65598;SHT31;52267;51.984;20.956;2023-07-31T08:13:13;22.38;63.64
65598;SHT31;52267;51.984;20.956;2023-07-31T08:15:41;22.47;62.71
65598;SHT31;52267;51.984;20.956;2023-07-31T08:18:11;22.53;62.42
65598;SHT31;52267;51.984;20.956;2023-07-31T08:20:38;22.59;62.24
65598;SHT31;52267;51.984;20.956;2023-07-31T08:23:06;22.71;61.63
65598;SHT31;52267;51.984;20.956;2023-07-31T08:25:34;22.81;61.11
65598;SHT31;52267;51.984;20.956;2023-07-31T08:28:02;22.85;60.93
65598;SHT31;52267;51.984;20.956;2023-07-31T08:30:30;23.02;60.80
65598;SHT31;52267;51.984;20.956;2023-07-31T08:32:58;23.28;60.44
65598;SHT31;52267;51.984;20.956;2023-07-31T08:35:25;23.52;59.73
65598;SHT31;52267;51.984;20.956;2023-07-31T08:37:54;23.65;59.59
65598;SHT31;52267;51.984;20.956;2023-07-31T08:40:21;23.71;57.81
65598;SHT31;52267;51.984;20.956;2023-07-31T08:42:49;23.77;57.77
65598;SHT31;52267;51.984;20.956;2023-07-31T08:45:19;23.87;57.52
65598;SHT31;52267;51.984;20.956;2023-07-31T08:47:47;23.88;56.50
65598;SHT31;52267;51.984;20.956;2023-07-31T08:50:18;24.01;55.73
65598;SHT31;52267;51.984;20.956;2023-07-31T08:52:47;24.26;56.48
65598;SHT31;52267;51.984;20.956;2023-07-31T08:55:17;24.25;56.50
65598;SHT31;52267;51.984;20.956;2023-07-31T08:57:52;24.29;55.77
65598;SHT31;52267;51.984;20.956;2023-07-31T09:00:22;24.37;55.98
65598;SHT31;52267;51.984;20.956;2023-07-31T09:02:54;24.47;55.45
65598;SHT31;52267;51.984;20.956;2023-07-31T09:05:29;24.79;55.82
65598;SHT31;52267;51.984;20.956;2023-07-31T09:07:58;25.09;54.55
65598;SHT31;52267;51.984;20.956;2023-07-31T09:10:27;25.18;53.19
65598;SHT31;52267;51.984;20.956;2023-07-31T09:12:54;25.11;52.96
65598;SHT31;52267;51.984;20.956;2023-07-31T09:15:22;25.22;52.88
65598;SHT31;52267;51.984;20.956;2023-07-31T09:17:58;25.39;52.10
65598;SHT31;52267;51.984;20.956;2023-07-31T09:20:29;25.13;51.38
65598;SHT31;52267;51.984;20.956;2023-07-31T09:23:05;25.08;51.81
65598;SHT31;52267;51.984;20.956;2023-07-31T09:25:37;25.25;51.54
65598;SHT31;52267;51.984;20.956;2023-07-31T09:28:06;25.48;51.15
65598;SHT31;52267;51.984;20.956;2023-07-31T09:30:46;25.61;50.08
65598;SHT31;52267;51.984;20.956;2023-07-31T09:33:18;25.84;49.31
65598;SHT31;52267;51.984;20.956;2023-07-31T09:35:46;26.09;49.01
65598;SHT31;52267;51.984;20.956;2023-07-31T09:38:17;26.24;48.81
65598;SHT31;52267;51.984;20.956;2023-07-31T09:40:45;26.04;48.86
65598;SHT31;52267;51.984;20.956;2023-07-31T09:43:18;25.67;49.23
65598;SHT31;52267;51.984;20.956;2023-07-31T09:45:47;25.66;49.40
65598;SHT31;52267;51.984;20.956;2023-07-31T09:48:19;25.87;49.05
65598;SHT31;52267;51.984;20.956;2023-07-31T09:50:47;25.98;47.61
65598;SHT31;52267;51.984;20.956;2023-07-31T09:53:15;26.06;47.98
65598;SHT31;52267;51.984;20.956;2023-07-31T09:55:43;26.32;48.05
65598;SHT31;52267;51.984;20.956;2023-07-31T09:58:11;26.44;47.91
65598;SHT31;52267;51.984;20.956;2023-07-31T10:00:39;26.37;48.14
65598;SHT31;52267;51.984;20.956;2023-07-31T10:03:07;26.48;47.82
65598;SHT31;52267;51.984;20.956;2023-07-31T10:05:38;26.52;47.34
65598;SHT31;52267;51.984;20.956;2023-07-31T10:08:08;26.08;47.30
65598;SHT31;52267;51.984;20.956;2023-07-31T10:10:36;26.19;47.42
65598;SHT31;52267;51.984;20.956;2023-07-31T10:13:08;26.45;46.94
65598;SHT31;52267;51.984;20.956;2023-07-31T10:15:36;26.50;46.91
65598;SHT31;52267;51.984;20.956;2023-07-31T10:18:05;26.76;46.84
65598;SHT31;52267;51.984;20.956;2023-07-31T10:20:33;26.85;47.15
65598;SHT31;52267;51.984;20.956;2023-07-31T10:23:02;26.83;46.95
65598;SHT31;52267;51.984;20.956;2023-07-31T10:25:30;26.97;46.65
65598;SHT31;52267;51.984;20.956;2023-07-31T10:27:59;27.11;46.53
65598;SHT31;52267;51.984;20.956;2023-07-31T10:30:27;27.45;46.47
65598;SHT31;52267;51.984;20.956;2023-07-31T10:32:57;27.74;45.78
65598;SHT31;52267;51.984;20.956;2023-07-31T10:35:25;27.96;45.76
65598;SHT31;52267;51.984;20.956;2023-07-31T10:37:52;28.11;45.18
65598;SHT31;52267;51.984;20.956;2023-07-31T10:40:24;28.33;45.18
65598;SHT31;52267;51.984;20.956;2023-07-31T10:42:56;28.45;45.02
65598;SHT31;52267;51.984;20.956;2023-07-31T10:45:31;28.68;44.60
65598;SHT31;52267;51.984;20.956;2023-07-31T10:48:03;28.85;44.01
65598;SHT31;52267;51.984;20.956;2023-07-31T10:50:45;28.83;42.58
65598;SHT31;52267;51.984;20.956;2023-07-31T10:53:22;28.67;42.82
65598;SHT31;52267;51.984;20.956;2023-07-31T10:55:52;28.73;42.16
65598;SHT31;52267;51.984;20.956;2023-07-31T10:58:20;28.74;42.69
65598;SHT31;52267;51.984;20.956;2023-07-31T11:00:48;28.76;42.64
65598;SHT31;52267;51.984;20.956;2023-07-31T11:03:16;28.67;42.71
65598;SHT31;52267;51.984;20.956;2023-07-31T11:05:51;28.70;41.82
65598;SHT31;52267;51.984;20.956;2023-07-31T11:08:35;28.66;41.72
65598;SHT31;52267;51.984;20.956;2023-07-31T11:11:14;28.52;41.35
65598;SHT31;52267;51.984;20.956;2023-07-31T11:13:49;28.25;40.90
65598;SHT31;52267;51.984;20.956;2023-07-31T11:16:23;28.18;41.67
65598;SHT31;52267;51.984;20.956;2023-07-31T11:18:52;28.23;41.29
65598;SHT31;52267;51.984;20.956;2023-07-31T11:21:22;28.21;41.15
65598;SHT31;52267;51.984;20.956;2023-07-31T11:23:52;28.14;41.44
65598;SHT31;52267;51.984;20.956;2023-07-31T11:26:23;27.89;40.56
65598;SHT31;52267;51.984;20.956;2023-07-31T11:28:51;27.81;41.28
65598;SHT31;52267;51.984;20.956;2023-07-31T11:31:18;27.80;40.94
65598;SHT31;52267;51.984;20.956;2023-07-31T11:33:46;27.63;40.97
65598;SHT31;52267;51.984;20.956;2023-07-31T11:36:17;27.46;40.89
65598;SHT31;52267;51.984;20.956;2023-07-31T11:38:46;27.50;40.97
65598;SHT31;52267;51.984;20.956;2023-07-31T11:41:14;27.59;40.75
65598;SHT31;52267;51.984;20.956;2023-07-31T11:43:43;27.33;40.19
65598;SHT31;52267;51.984;20.956;2023-07-31T11:46:10;27.08;40.59
65598;SHT31;52267;51.984;20.956;2023-07-31T11:48:37;26.89;41.16
65598;SHT31;52267;51.984;20.956;2023-07-31T11:51:06;26.80;41.77
65598;SHT31;52267;51.984;20.956;2023-07-31T11:53:45;26.69;42.30
65598;SHT31;52267;51.984;20.956;2023-07-31T11:56:17;26.64;42.40
65598;SHT31;52267;51.984;20.956;2023-07-31T11:58:47;26.61;42.67
65598;SHT31;52267;51.984;20.956;2023-07-31T12:01:20;26.61;42.41
65598;SHT31;52267;51.984;20.956;2023-07-31T12:03:49;26.46;41.88
65598;SHT31;52267;51.984;20.956;2023-07-31T12:06:17;26.30;41.96
65598;SHT31;52267;51.984;20.956;2023-07-31T12:08:47;26.22;41.78
65598;SHT31;52267;51.984;20.956;2023-07-31T12:11:15;26.17;42.18
65598;SHT31;52267;51.984;20.956;2023-07-31T12:13:44;26.12;42.23
65598;SHT31;52267;51.984;20.956;2023-07-31T12:16:11;26.04;41.98
65598;SHT31;52267;51.984;20.956;2023-07-31T12:18:38;26.02;42.14
65598;SHT31;52267;51.984;20.956;2023-07-31T12:21:06;25.89;42.02
65598;SHT31;52267;51.984;20.956;2023-07-31T12:23:35;25.73;42.17
65598;SHT31;52267;51.984;20.956;2023-07-31T12:26:08;25.57;42.14
65598;SHT31;52267;51.984;20.956;2023-07-31T12:28:37;25.40;42.01
65598;SHT31;52267;51.984;20.956;2023-07-31T12:31:19;25.21;42.29
65598;SHT31;52267;51.984;20.956;2023-07-31T12:33:50;25.08;42.35
65598;SHT31;52267;51.984;20.956;2023-07-31T12:36:22;25.05;42.65
65598;SHT31;52267;51.984;20.956;2023-07-31T12:38:51;25.02;42.43
65598;SHT31;52267;51.984;20.956;2023-07-31T12:41:19;25.06;43.01
65598;SHT31;52267;51.984;20.956;2023-07-31T12:43:46;25.12;42.69
65598;SHT31;52267;51.984;20.956;2023-07-31T12:46:13;25.13;42.86
65598;SHT31;52267;51.984;20.956;2023-07-31T12:48:41;25.23;42.86
65598;SHT31;52267;51.984;20.956;2023-07-31T12:51:08;25.32;42.92
65598;SHT31;52267;51.984;20.956;2023-07-31T12:53:35;25.33;42.81
65598;SHT31;52267;51.984;20.956;2023-07-31T12:56:02;25.25;42.49
65598;SHT31;52267;51.984;20.956;2023-07-31T12:58:30;25.20;42.97
65598;SHT31;52267;51.984;20.956;2023-07-31T13:00:57;25.17;43.25
65598;SHT31;52267;51.984;20.956;2023-07-31T13:03:24;25.11;43.41
65598;SHT31;52267;51.984;20.956;2023-07-31T13:05:52;25.03;43.74
65598;SHT31;52267;51.984;20.956;2023-07-31T13:08:19;25.00;43.97
65598;SHT31;52267;51.984;20.956;2023-07-31T13:10:46;24.93;43.59
65598;SHT31;52267;51.984;20.956;2023-07-31T13:13:13;24.94;43.11
65598;SHT31;52267;51.984;20.956;2023-07-31T13:15:40;24.93;42.48
65598;SHT31;52267;51.984;20.956;2023-07-31T13:18:08;25.08;42.45
65598;SHT31;52267;51.984;20.956;2023-07-31T13:20:35;25.32;41.29
65598;SHT31;52267;51.984;20.956;2023-07-31T13:23:02;25.63;41.00
65598;SHT31;52267;51.984;20.956;2023-07-31T13:25:29;25.97;40.43
65598;SHT31;52267;51.984;20.956;2023-07-31T13:27:56;26.32;40.66
65598;SHT31;52267;51.984;20.956;2023-07-31T13:30:23;26.41;40.51
65598;SHT31;52267;51.984;20.956;2023-07-31T13:32:50;26.32;40.44
65598;SHT31;52267;51.984;20.956;2023-07-31T13:35:18;26.43;40.07
65598;SHT31;52267;51.984;20.956;2023-07-31T13:37:45;26.70;40.30
65598;SHT31;52267;51.984;20.956;2023-07-31T13:40:12;26.87;39.71
65598;SHT31;52267;51.984;20.956;2023-07-31T13:42:39;27.00;39.58
65598;SHT31;52267;51.984;20.956;2023-07-31T13:45:09;27.02;39.24
65598;SHT31;52267;51.984;20.956;2023-07-31T13:47:37;26.96;39.39
65598;SHT31;52267;51.984;20.956;2023-07-31T13:50:04;26.53;39.36
65598;SHT31;52267;51.984;20.956;2023-07-31T13:52:31;26.18;39.98
65598;SHT31;52267;51.984;20.956;2023-07-31T13:54:58;25.99;40.31
65598;SHT31;52267;51.984;20.956;2023-07-31T13:57:25;25.83;40.42
65598;SHT31;52267;51.984;20.956;2023-07-31T13:59:53;25.75;40.92
65598;SHT31;52267;51.984;20.956;2023-07-31T14:02:20;25.85;41.02
65598;SHT31;52267;51.984;20.956;2023-07-31T14:04:47;25.91;41.37
65598;SHT31;52267;51.984;20.956;2023-07-31T14:07:14;25.93;41.22
65598;SHT31;52267;51.984;20.956;2023-07-31T14:09:41;25.92;41.49
65598;SHT31;52267;51.984;20.956;2023-07-31T14:12:08;25.91;41.71
65598;SHT31;52267;51.984;20.956;2023-07-31T14:14:35;25.87;41.75
65598;SHT31;52267;51.984;20.956;2023-07-31T14:17:04;25.82;42.04
65598;SHT31;52267;51.984;20.956;2023-07-31T14:19:32;25.78;42.22
65598;SHT31;52267;51.984;20.956;2023-07-31T14:21:59;25.86;42.39
65598;SHT31;52267;51.984;20.956;2023-07-31T14:24:26;26.10;42.32
65598;SHT31;52267;51.984;20.956;2023-07-31T14:26:53;26.53;42.07
65598;SHT31;52267;51.984;20.956;2023-07-31T14:29:20;26.83;41.66
65598;SHT31;52267;51.984;20.956;2023-07-31T14:31:47;27.16;41.55
65598;SHT31;52267;51.984;20.956;2023-07-31T14:34:14;27.20;40.91
65598;SHT31;52267;51.984;20.956;2023-07-31T14:36:43;27.10;40.74
65598;SHT31;52267;51.984;20.956;2023-07-31T14:39:10;26.90;40.61
65598;SHT31;52267;51.984;20.956;2023-07-31T14:41:38;26.79;40.99
65598;SHT31;52267;51.984;20.956;2023-07-31T14:44:05;26.69;41.22
65598;SHT31;52267;51.984;20.956;2023-07-31T14:46:32;26.47;40.97
65598;SHT31;52267;51.984;20.956;2023-07-31T14:48:59;26.15;41.21
65598;SHT31;52267;51.984;20.956;2023-07-31T14:51:26;25.81;41.73
65598;SHT31;52267;51.984;20.956;2023-07-31T14:53:53;25.57;42.25
65598;SHT31;52267;51.984;20.956;2023-07-31T14:56:20;25.48;42.69
65598;SHT31;52267;51.984;20.956;2023-07-31T14:58:47;25.46;42.88
65598;SHT31;52267;51.984;20.956;2023-07-31T15:01:14;25.42;43.10
65598;SHT31;52267;51.984;20.956;2023-07-31T15:03:41;25.42;43.64
65598;SHT31;52267;51.984;20.956;2023-07-31T15:06:08;25.50;43.85
65598;SHT31;52267;51.984;20.956;2023-07-31T15:08:35;25.53;43.72
65598;SHT31;52267;51.984;20.956;2023-07-31T15:11:03;25.47;43.84
65598;SHT31;52267;51.984;20.956;2023-07-31T15:13:30;25.47;43.97
65598;SHT31;52267;51.984;20.956;2023-07-31T15:15:57;25.41;43.89
65598;SHT31;52267;51.984;20.956;2023-07-31T15:18:24;25.35;44.17
65598;SHT31;52267;51.984;20.956;2023-07-31T15:20:53;25.32;44.39
65598;SHT31;52267;51.984;20.956;2023-07-31T15:23:20;25.27;44.36
65598;SHT31;52267;51.984;20.956;2023-07-31T15:25:47;25.13;44.44